Sunday, October 21, 2018, 10:29 PM EDT
Back to Local

KIJD, Willimantic Windham Airport

Location: North Windham, CT, United States Lat: 41.75
Local Time: 10:29 PM EDT ( 2:29 GMT) Lon: -72.183
Time Zone: US/Eastern Elev: 246 ft

Show me the last for .
Show Decoded

2018-10-21 21:52 METAR KIJD 220152Z AUTO VRB06KT 10SM CLR 03/M04 A3009 RMK AO2 SLP192 T00281044 =
2018-10-21 20:52 METAR KIJD 220052Z AUTO VRB06G15KT 10SM CLR 03/M04 A3007 RMK AO2 SLP182
                 T00331044 =
2018-10-21 19:52 METAR KIJD 212352Z AUTO 29009KT 10SM CLR 04/M05 A3004 RMK AO2 SLP172 T00391050
                 10083 20039 51038 =
2018-10-21 18:52 METAR KIJD 212252Z AUTO 30005KT 10SM CLR 04/M04 A3000 RMK AO2 SLP161 T00441044 =
2018-10-21 17:52 METAR KIJD 212152Z AUTO 32007KT 10SM CLR 06/M06 A2996 RMK AO2 SLP147 T00561061 =
2018-10-21 16:52 METAR KIJD 212052Z AUTO 30013G20KT 10SM CLR 07/M05 A2992 RMK AO2 SLP133
                 T00721050 53019 =
2018-10-21 15:52 METAR KIJD 211952Z AUTO 30010G19KT 10SM SCT055 08/M04 A2989 RMK AO2 PK WND
                 29028/1853 SLP122 T00781044 =
2018-10-21 14:52 METAR KIJD 211852Z AUTO 29017G23KT 10SM BKN055 08/M03 A2987 RMK AO2 PK WND
                 32028/1756 SLP116 T00781033 =
2018-10-21 13:52 METAR KIJD 211752Z AUTO 32015G21KT 10SM BKN050 07/M02 A2987 RMK AO2 PK WND
                 34026/1717 SLP114 T00721022 10083 20061 53012 =
2018-10-21 12:52 METAR KIJD 211652Z AUTO 32009G20KT 270V350 10SM OVC048 08/M01 A2985 RMK AO2 PK
                 WND 32029/1608 SLP108 T00781011 =
2018-10-21 11:52 METAR KIJD 211552Z AUTO 31016G27KT 270V340 10SM OVC044 08/M01 A2984 RMK AO2 PK
                 WND 33027/1547 SLP106 T00781011 =
2018-10-21 10:52 METAR KIJD 211452Z AUTO 32016G23KT 280V340 10SM BKN043 07/00 A2983 RMK AO2
                 SLP102 T00670000 51031 =
2018-10-21 09:52 METAR KIJD 211352Z AUTO 31007KT 10SM OVC044 07/05 A2980 RMK AO2 SLP092 T00670050
                 =
2018-10-21 08:52 METAR KIJD 211252Z AUTO 33005KT 10SM FEW055 OVC080 06/05 A2978 RMK AO2 SLP085
                 T00610050 =
2018-10-21 07:52 METAR KIJD 211152Z AUTO 01007KT 10SM FEW046 SCT055 OVC070 06/06 A2974 RMK AO2
                 RAE43 SLP071 P0001 60009 70009 T00610056 10089 20061 52047 =
2018-10-21 06:52 METAR KIJD 211052Z AUTO 01008KT 340V050 7SM RA OVC034 07/06 A2969 RMK AO2 RAB15
                 SLP054 P0004 T00670056 =
2018-10-21 05:52 METAR KIJD 210952Z AUTO 35007KT 10SM BKN047 OVC055 08/05 A2964 RMK AO2 RAB03E43
                 SLP038 P0001 T00780050 =
2018-10-21 04:52 METAR KIJD 210852Z AUTO 35006KT 10SM OVC050 08/06 A2960 RMK AO2 SLP022 60003
                 T00830061 53006 =
2018-10-21 03:52 METAR KIJD 210752Z AUTO 01003KT 10SM OVC060 08/07 A2959 RMK AO2 RAE0654 SLP019
                 P0000 T00830072 =
2018-10-21 02:52 METAR KIJD 210652Z AUTO 02005KT 10SM -RA FEW050 OVC090 08/08 A2958 RMK AO2
                 RAB0557 SLP016 P0003 T00830078 =
2018-10-21 01:52 METAR KIJD 210552Z AUTO 00000KT 10SM BKN075 07/07 A2958 RMK AO2 SLP016 60000
                 T00720072 10094 20067 58014 =
2018-10-21 00:52 METAR KIJD 210452Z AUTO 00000KT 10SM OVC080 07/07 A2960 RMK AO2 RAB14E32 SLP023
                 P0000 T00720072 401720067 =
2018-10-20 23:52 METAR KIJD 210352Z AUTO 00000KT 10SM BKN060 OVC075 08/08 A2961 RMK AO2 SLP026
                 T00780078 =
2018-10-20 22:52 METAR KIJD 210252Z AUTO 00000KT 10SM OVC090 08/07 A2962 RMK AO2 SLP029 T00780072
                 53004 =

Support USWX by starting your Amazon purchase here.